createdAt,value
2019-01-21T00:02:37.616Z,3.73
2019-01-21T00:05:25.902Z,3.87
2019-01-21T00:08:14.438Z,3.47
2019-01-21T00:11:03.170Z,4.03
2019-01-21T00:13:51.382Z,3.73
2019-01-21T00:16:40.250Z,10.80
2019-01-21T00:19:28.481Z,3.63
2019-01-21T00:22:16.986Z,3.50
2019-01-21T00:25:06.562Z,3.03
2019-01-21T00:27:54.763Z,3.70
2019-01-21T00:30:43.638Z,3.50
2019-01-21T00:33:32.040Z,3.77
2019-01-21T00:36:20.298Z,3.70
2019-01-21T00:39:08.889Z,5.40
2019-01-21T00:41:57.046Z,4.90
2019-01-21T00:44:45.482Z,4.63
2019-01-21T00:47:33.847Z,3.40
2019-01-21T00:50:22.400Z,3.60
2019-01-21T00:53:11.202Z,5.40
2019-01-21T00:55:59.393Z,3.70
2019-01-21T00:58:47.582Z,4.60
2019-01-21T01:01:35.823Z,3.93
2019-01-21T01:04:24.027Z,3.47
2019-01-21T01:07:12.244Z,4.20
2019-01-21T01:10:00.829Z,5.17
2019-01-21T01:12:49.414Z,3.97
2019-01-21T01:15:37.622Z,4.87
2019-01-21T01:18:25.635Z,4.50
2019-01-21T01:21:14.587Z,3.97
2019-01-21T01:24:03.022Z,4.23
2019-01-21T01:26:51.477Z,5.63
2019-01-21T01:29:40.218Z,3.97
2019-01-21T01:32:28.723Z,5.43
2019-01-21T01:35:17.693Z,4.20
2019-01-21T01:38:06.544Z,4.20
2019-01-21T01:40:55.077Z,4.03
2019-01-21T01:43:43.835Z,4.20
2019-01-21T01:46:32.811Z,4.67
2019-01-21T01:49:21.719Z,4.13
2019-01-21T01:52:10.459Z,5.10
2019-01-21T01:54:59.449Z,4.43
2019-01-21T01:57:47.659Z,4.60
2019-01-21T02:00:37.033Z,4.77
2019-01-21T02:03:25.507Z,4.47
2019-01-21T02:06:13.842Z,8.43
2019-01-21T02:09:02.132Z,5.13
2019-01-21T02:11:50.621Z,4.57
2019-01-21T02:14:39.421Z,5.73
2019-01-21T02:17:27.971Z,5.20
2019-01-21T02:20:18.063Z,4.33
2019-01-21T02:23:06.255Z,5.53
2019-01-21T02:25:56.807Z,4.90
2019-01-21T02:29:00.238Z,5.20
2019-01-21T02:32:17.257Z,5.03
2019-01-21T02:35:14.717Z,5.10
2019-01-21T02:38:15.733Z,8.83
2019-01-21T02:41:07.064Z,18.93
2019-01-21T02:44:07.620Z,8.50
2019-01-21T02:46:59.284Z,10.63
2019-01-21T02:50:02.175Z,11.33
2019-01-21T02:53:14.846Z,6.43
2019-01-21T02:56:15.181Z,7.30
2019-01-21T02:59:09.526Z,9.77
2019-01-21T03:02:12.794Z,6.60
2019-01-21T03:05:18.898Z,8.10
2019-01-21T03:08:25.224Z,6.40
2019-01-21T03:11:19.164Z,7.13
2019-01-21T03:14:33.102Z,8.17
2019-01-21T03:17:48.698Z,9.73
2019-01-21T03:20:59.180Z,8.00
2019-01-21T03:24:06.946Z,6.50
2019-01-21T03:27:01.107Z,6.00
2019-01-21T03:30:16.457Z,5.70
2019-01-21T03:33:40.703Z,6.27
2019-01-21T03:36:43.376Z,5.50
2019-01-21T03:39:57.446Z,5.97
2019-01-21T03:42:51.444Z,7.53
2019-01-21T03:45:43.242Z,6.40
2019-01-21T03:48:35.304Z,5.70
2019-01-21T03:51:46.255Z,6.00
2019-01-21T03:54:36.510Z,7.60
2019-01-21T03:57:28.189Z,7.60
2019-01-21T04:00:25.317Z,9.57
2019-01-21T04:03:28.915Z,7.13
2019-01-21T04:06:20.661Z,8.07
2019-01-21T04:09:26.871Z,5.03
2019-01-21T04:12:24.306Z,5.67
2019-01-21T04:15:34.583Z,5.97
2019-01-21T04:18:25.653Z,5.87
2019-01-21T04:21:44.267Z,6.30
2019-01-21T04:25:00.379Z,7.57
2019-01-21T04:28:12.495Z,6.20
2019-01-21T04:31:06.651Z,7.30
2019-01-21T04:33:57.865Z,5.90
2019-01-21T04:37:03.452Z,8.00
2019-01-21T04:40:00.723Z,6.37
2019-01-21T04:43:06.886Z,7.10
2019-01-21T04:45:58.361Z,6.67
2019-01-21T04:49:09.487Z,10.33
2019-01-21T04:52:20.338Z,12.60
2019-01-21T04:55:26.698Z,7.50
2019-01-21T04:58:47.189Z,7.30
2019-01-21T05:01:41.563Z,8.03
2019-01-21T05:04:38.672Z,10.50
2019-01-21T05:07:35.868Z,10.30
2019-01-21T05:10:45.438Z,7.90
2019-01-21T05:13:51.070Z,7.83
2019-01-21T05:16:42.822Z,7.37
2019-01-21T05:19:40.301Z,9.27
2019-01-21T05:22:37.337Z,7.73
2019-01-21T05:25:34.824Z,7.40
2019-01-21T05:28:38.522Z,8.23
2019-01-21T05:31:51.590Z,11.87
2019-01-21T05:34:59.296Z,8.00
2019-01-21T05:38:08.449Z,7.37
2019-01-21T05:41:08.532Z,7.57
2019-01-21T05:44:02.712Z,9.67
2019-01-21T05:47:05.962Z,7.63
2019-01-21T05:50:29.120Z,7.53
2019-01-21T05:53:20.573Z,8.40
2019-01-21T05:56:18.012Z,7.47
2019-01-21T05:59:15.425Z,9.13
2019-01-21T06:02:09.526Z,9.13
2019-01-21T06:05:15.912Z,8.00
2019-01-21T06:08:07.408Z,7.07
2019-01-21T06:11:16.941Z,8.90
2019-01-21T06:14:09.018Z,12.03
2019-01-21T06:17:06.351Z,9.63
2019-01-21T06:20:17.324Z,12.07
2019-01-21T06:23:28.334Z,7.83
2019-01-21T06:26:36.100Z,12.93
2019-01-21T06:29:32.968Z,9.77
2019-01-21T06:32:42.264Z,9.00
2019-01-21T06:35:39.455Z,8.77
2019-01-21T06:38:33.394Z,9.90
2019-01-21T06:41:24.757Z,13.13
2019-01-21T06:44:27.666Z,8.60
2019-01-21T06:47:43.128Z,10.40
2019-01-21T06:50:49.284Z,11.23
2019-01-21T06:53:58.512Z,10.20
2019-01-21T06:57:01.876Z,9.00
2019-01-21T07:00:14.347Z,9.60
2019-01-21T07:03:20.251Z,7.70
2019-01-21T07:06:45.979Z,8.53
2019-01-21T07:10:00.841Z,9.40
2019-01-21T07:12:54.290Z,9.50
2019-01-21T07:16:05.317Z,10.10
2019-01-21T07:19:14.346Z,8.10
2019-01-21T07:22:14.401Z,9.57
2019-01-21T07:25:26.754Z,9.10
2019-01-21T07:28:29.133Z,9.57
2019-01-21T07:31:26.045Z,9.07
2019-01-21T07:34:41.098Z,10.60
2019-01-21T07:37:53.464Z,12.40
2019-01-21T07:41:03.162Z,20.37
2019-01-21T07:44:12.145Z,14.40
2019-01-21T07:47:09.036Z,32.57
2019-01-21T07:50:15.029Z,18.43
2019-01-21T07:53:25.285Z,21.80
2019-01-21T07:56:43.301Z,22.03
2019-01-21T07:59:52.135Z,25.07
2019-01-21T08:02:46.313Z,42.80
2019-01-21T08:05:58.526Z,20.63
2019-01-21T08:08:58.521Z,23.93
2019-01-21T08:11:59.030Z,20.27
2019-01-21T08:14:56.161Z,20.03
2019-01-21T08:18:03.396Z,38.30
2019-01-21T08:21:03.268Z,35.27
2019-01-21T08:23:57.212Z,43.93
2019-01-21T08:26:54.329Z,59.43
2019-01-21T08:29:57.027Z,87.47
2019-01-21T08:32:54.452Z,72.33
2019-01-21T08:35:48.467Z,64.67
2019-01-21T08:38:39.957Z,51.80
2019-01-21T08:41:31.500Z,57.80
2019-01-21T08:44:39.510Z,48.57
2019-01-21T08:47:33.685Z,51.67
2019-01-21T08:50:25.826Z,51.70
2019-01-21T08:53:35.454Z,42.77
2019-01-21T08:56:29.850Z,41.17
2019-01-21T08:59:39.166Z,35.53
2019-01-21T09:02:55.958Z,35.17
2019-01-21T09:06:02.088Z,36.93
2019-01-21T09:12:24.539Z,22.03
2019-01-21T09:15:27.670Z,21.20
2019-01-21T09:18:40.294Z,28.73
2019-01-21T09:21:46.728Z,24.77
2019-01-21T09:24:38.178Z,22.53
2019-01-21T09:27:41.074Z,26.03
2019-01-21T09:30:40.990Z,23.27
2019-01-21T09:33:50.649Z,20.40
2019-01-21T09:36:47.903Z,22.07
2019-01-21T09:39:45.566Z,20.23
2019-01-21T09:42:49.089Z,20.20
2019-01-21T09:45:58.113Z,17.80
2019-01-21T09:48:45.371Z,24.87
2019-01-21T09:51:34.354Z,14.50
2019-01-21T09:54:23.882Z,17.60
2019-01-21T09:57:15.027Z,23.93
2019-01-21T10:00:05.424Z,15.43
2019-01-21T10:02:56.792Z,15.03
2019-01-21T10:05:47.362Z,15.27
2019-01-21T10:08:41.597Z,15.93
2019-01-21T10:11:55.360Z,18.13
2019-01-21T10:15:07.837Z,13.93
2019-01-21T10:18:02.222Z,17.47
2019-01-21T10:20:59.072Z,12.57
2019-01-21T10:24:09.972Z,13.47
2019-01-21T10:27:06.997Z,13.37
2019-01-21T10:30:18.995Z,11.90
2019-01-21T10:33:29.591Z,12.07
2019-01-21T10:36:37.689Z,9.10
2019-01-21T10:39:51.817Z,13.53
2019-01-21T10:42:59.564Z,12.77
2019-01-21T10:45:54.145Z,10.17
2019-01-21T10:48:48.317Z,9.83
2019-01-21T10:51:51.657Z,11.07
2019-01-21T10:54:52.087Z,9.93
2019-01-21T10:57:55.334Z,11.47
2019-01-21T11:00:58.955Z,9.40
2019-01-21T11:03:50.847Z,10.37
2019-01-21T11:06:44.830Z,12.77
2019-01-21T11:09:41.784Z,9.60
2019-01-21T11:12:52.673Z,9.43
2019-01-21T11:15:47.083Z,10.00
2019-01-21T11:18:47.050Z,9.80
2019-01-21T11:21:44.044Z,11.93
2019-01-21T11:24:50.469Z,8.73
2019-01-21T11:27:57.263Z,8.23
2019-01-21T11:30:51.597Z,8.10
2019-01-21T11:33:59.193Z,10.80
2019-01-21T11:36:58.996Z,9.67
2019-01-21T11:39:59.388Z,10.33
2019-01-21T11:43:08.896Z,11.80
2019-01-21T11:46:09.542Z,8.40
2019-01-21T11:49:22.409Z,10.77
2019-01-21T11:52:22.423Z,29.27
2019-01-21T11:55:28.843Z,38.53
2019-01-21T11:58:34.972Z,41.87
2019-01-21T12:01:26.876Z,45.07
2019-01-21T12:04:35.192Z,43.77
2019-01-21T12:07:32.133Z,57.67
2019-01-21T12:10:41.516Z,43.93
2019-01-21T12:13:58.847Z,53.80
2019-01-21T12:17:17.831Z,42.77
2019-01-21T12:20:33.046Z,33.60
2019-01-21T12:23:30.291Z,39.47
2019-01-21T12:26:30.553Z,31.93
2019-01-21T12:29:36.525Z,30.37
2019-01-21T12:32:30.637Z,28.80
2019-01-21T12:35:24.578Z,24.93
2019-01-21T12:38:38.408Z,28.20
2019-01-21T12:41:35.101Z,29.57
2019-01-21T12:44:33.242Z,28.63
2019-01-21T12:47:39.497Z,23.07
2019-01-21T12:50:52.918Z,27.03
2019-01-21T12:53:45.453Z,22.57
2019-01-21T12:56:48.213Z,26.00
2019-01-21T12:59:37.515Z,19.83
2019-01-21T13:02:24.114Z,29.43
2019-01-21T13:04:59.060Z,18.00
2019-01-21T13:07:36.534Z,16.27
2019-01-21T13:10:22.557Z,17.97
2019-01-21T13:13:00.887Z,17.50
2019-01-21T13:15:44.301Z,20.03
2019-01-21T13:18:44.421Z,13.53
2019-01-21T13:21:23.965Z,22.50
2019-01-21T13:23:58.684Z,31.80
2019-01-21T13:26:35.806Z,54.07
2019-01-21T13:29:16.033Z,68.13
2019-01-21T13:31:56.383Z,170.97
2019-01-21T13:34:42.858Z,225.33
2019-01-21T13:37:54.599Z,295.47
2019-01-21T13:41:00.519Z,360.33
2019-01-21T13:44:09.259Z,405.47
2019-01-21T13:47:18.533Z,407.10
2019-01-21T13:50:01.301Z,428.60
2019-01-21T13:52:38.908Z,432.33
2019-01-21T13:55:16.187Z,411.73
2019-01-21T13:58:00.951Z,425.00
2019-01-21T14:00:41.437Z,442.13
2019-01-21T14:03:18.781Z,402.37
2019-01-21T14:06:12.927Z,400.93
2019-01-21T14:09:09.789Z,407.10
2019-01-21T14:12:05.214Z,404.40
2019-01-21T14:14:45.742Z,380.87
2019-01-21T14:17:29.495Z,359.40
2019-01-21T14:20:16.759Z,386.17
2019-01-21T14:22:52.102Z,370.07
2019-01-21T14:25:38.499Z,366.97
2019-01-21T14:28:21.938Z,359.17
2019-01-21T14:31:16.069Z,352.57
2019-01-21T14:34:05.851Z,370.30
2019-01-21T14:36:43.544Z,320.90
2019-01-21T14:39:33.138Z,324.30
2019-01-21T14:42:39.483Z,315.10
2019-01-21T14:45:33.216Z,303.97
2019-01-21T14:48:36.196Z,273.73
2019-01-21T14:51:43.902Z,284.03
2019-01-21T14:54:40.553Z,273.33
2019-01-21T14:57:41.643Z,282.03
2019-01-21T15:00:50.542Z,245.40
2019-01-21T15:04:11.196Z,242.70
2019-01-21T15:07:02.732Z,245.10
2019-01-21T15:09:59.665Z,230.13
2019-01-21T15:13:02.055Z,231.43
2019-01-21T15:16:08.196Z,233.57
2019-01-21T15:19:05.702Z,211.50
2019-01-21T15:22:11.698Z,202.67
2019-01-21T15:25:09.018Z,189.97
2019-01-21T15:28:12.203Z,180.43
2019-01-21T15:31:06.057Z,186.13
2019-01-21T15:34:15.071Z,185.70
2019-01-21T15:37:31.790Z,192.07
2019-01-21T15:40:47.256Z,185.27
2019-01-21T15:43:41.521Z,167.37
2019-01-21T15:46:49.053Z,183.83
2019-01-21T15:49:46.307Z,188.53
2019-01-21T15:52:37.434Z,164.60
2019-01-21T15:55:29.104Z,173.87
2019-01-21T15:58:20.554Z,156.10
2019-01-21T16:01:20.020Z,167.37
2019-01-21T16:04:20.354Z,170.33
2019-01-21T16:07:17.861Z,155.40
2019-01-21T16:10:33.533Z,152.63
2019-01-21T16:13:25.587Z,154.50
2019-01-21T16:16:51.941Z,139.90
2019-01-21T16:19:40.264Z,147.07
2019-01-21T16:22:37.376Z,133.93
2019-01-21T16:25:34.962Z,134.63
2019-01-21T16:28:18.534Z,126.30
2019-01-21T16:31:13.872Z,125.27
2019-01-21T16:34:17.087Z,129.63
2019-01-21T16:37:17.411Z,122.97
2019-01-21T16:40:37.555Z,129.10
2019-01-21T16:43:25.891Z,126.40
2019-01-21T16:46:14.228Z,113.20
2019-01-21T16:49:02.708Z,115.03
2019-01-21T16:51:51.000Z,102.80
2019-01-21T16:54:39.527Z,98.13
2019-01-21T16:57:27.527Z,106.57
2019-01-21T17:00:16.580Z,102.97
2019-01-21T17:03:04.566Z,91.70
2019-01-21T17:05:52.888Z,97.80
2019-01-21T17:08:41.021Z,107.30
2019-01-21T17:11:29.144Z,102.50
2019-01-21T17:14:17.305Z,93.73
2019-01-21T17:17:06.039Z,90.20
2019-01-21T17:19:37.778Z,79.67
2019-01-21T17:22:09.290Z,93.17
2019-01-21T17:24:40.947Z,90.67
2019-01-21T17:27:12.457Z,94.40
2019-01-21T17:29:44.059Z,80.93
2019-01-21T17:32:16.235Z,78.90
2019-01-21T17:34:47.837Z,77.90
2019-01-21T17:37:19.553Z,86.63
2019-01-21T17:39:51.099Z,75.67
2019-01-21T17:42:22.613Z,86.90
2019-01-21T17:44:54.237Z,77.30
2019-01-21T17:47:25.951Z,71.63
2019-01-21T17:49:57.690Z,70.37
2019-01-21T17:52:29.255Z,76.73
2019-01-21T17:55:00.838Z,72.40
2019-01-21T17:57:32.786Z,73.20
2019-01-21T18:00:07.396Z,65.43
2019-01-21T18:02:38.970Z,67.50
2019-01-21T18:05:10.773Z,64.57
2019-01-21T18:07:42.344Z,63.47
2019-01-21T18:10:17.222Z,64.70
2019-01-21T18:12:49.077Z,66.47
2019-01-21T18:15:20.848Z,60.90
2019-01-21T18:17:52.539Z,65.20
2019-01-21T18:20:25.332Z,63.00
2019-01-21T18:22:57.871Z,53.13
2019-01-21T18:25:46.378Z,56.63
2019-01-21T18:28:34.573Z,57.47
2019-01-21T18:31:22.805Z,55.07
2019-01-21T18:34:11.282Z,49.03
2019-01-21T18:36:59.844Z,47.73
2019-01-21T18:39:51.092Z,56.70
2019-01-21T18:42:39.926Z,47.10
2019-01-21T18:45:28.854Z,51.07
2019-01-21T18:48:17.347Z,49.33
2019-01-21T18:51:05.638Z,47.70
2019-01-21T18:53:54.033Z,44.03
2019-01-21T18:56:43.022Z,40.90
2019-01-21T18:59:31.221Z,45.87
2019-01-21T19:02:19.685Z,42.27
2019-01-21T19:05:09.254Z,40.20
2019-01-21T19:07:57.912Z,43.27
2019-01-21T19:10:46.612Z,41.17
2019-01-21T19:13:36.066Z,39.57
2019-01-21T19:16:24.105Z,39.40
2019-01-21T19:19:12.724Z,37.23
2019-01-21T19:22:01.118Z,36.83
2019-01-21T19:24:49.432Z,41.03
2019-01-21T19:27:37.639Z,36.40
2019-01-21T19:30:28.128Z,31.37
2019-01-21T19:33:16.593Z,34.73
2019-01-21T19:36:05.071Z,34.90
2019-01-21T19:38:53.508Z,34.60
2019-01-21T19:41:41.663Z,36.47
2019-01-21T19:44:30.017Z,35.63
2019-01-21T19:47:18.504Z,29.37
2019-01-21T19:50:10.505Z,28.63
2019-01-21T19:52:59.420Z,32.17
2019-01-21T19:55:47.551Z,27.80
2019-01-21T19:58:36.220Z,27.60
2019-01-21T20:01:24.736Z,31.57
2019-01-21T20:04:20.361Z,33.17
2019-01-21T20:06:49.391Z,27.23
2019-01-21T20:09:37.908Z,24.30
2019-01-21T20:12:26.396Z,28.27
2019-01-21T20:15:18.730Z,24.70
2019-01-21T20:18:07.859Z,27.90
2019-01-21T20:20:56.695Z,27.30
2019-01-21T20:23:45.096Z,25.47
2019-01-21T20:26:33.541Z,24.60
2019-01-21T20:29:21.871Z,26.30
2019-01-21T20:32:10.821Z,26.77
2019-01-21T20:34:59.346Z,22.07
2019-01-21T20:37:47.868Z,21.93
2019-01-21T20:40:36.140Z,23.57
2019-01-21T20:43:24.608Z,20.70
2019-01-21T20:46:13.011Z,26.23
2019-01-21T20:49:01.530Z,21.30
2019-01-21T20:51:49.882Z,22.70
2019-01-21T20:54:38.836Z,19.57
2019-01-21T20:57:27.770Z,22.43
2019-01-21T21:00:19.047Z,16.17
2019-01-21T21:03:07.543Z,21.40
2019-01-21T21:05:56.016Z,16.70
2019-01-21T21:08:44.272Z,18.83
2019-01-21T21:11:32.830Z,15.07
2019-01-21T21:14:21.554Z,16.37
2019-01-21T21:17:10.387Z,14.30
2019-01-21T21:20:00.459Z,13.50
2019-01-21T21:22:48.854Z,17.50
2019-01-21T21:25:38.366Z,14.30
2019-01-21T21:28:29.827Z,15.47
2019-01-21T21:31:16.819Z,12.07
2019-01-21T21:34:05.669Z,15.77
2019-01-21T21:36:53.817Z,14.50
2019-01-21T21:39:42.011Z,12.50
2019-01-21T21:42:31.848Z,15.70
2019-01-21T21:45:22.399Z,11.60
2019-01-21T21:48:11.581Z,10.80
2019-01-21T21:50:59.945Z,12.87
2019-01-21T21:53:48.447Z,14.90
2019-01-21T21:56:36.589Z,12.40
2019-01-21T21:59:25.010Z,14.30
2019-01-21T22:02:13.487Z,15.03
2019-01-21T22:05:01.763Z,9.03
2019-01-21T22:07:50.679Z,9.40
2019-01-21T22:10:39.372Z,11.43
2019-01-21T22:13:27.848Z,9.17
2019-01-21T22:16:16.443Z,12.47
2019-01-21T22:19:04.977Z,14.37
2019-01-21T22:21:53.491Z,12.57
2019-01-21T22:24:41.990Z,8.73
2019-01-21T22:27:30.149Z,9.03
2019-01-21T22:30:23.989Z,8.17
2019-01-21T22:33:12.460Z,11.10
2019-01-21T22:36:00.961Z,13.43
2019-01-21T22:38:49.950Z,7.13
2019-01-21T22:41:38.137Z,9.33
2019-01-21T22:44:26.374Z,9.00
2019-01-21T22:47:14.628Z,8.47
2019-01-21T22:50:04.848Z,8.77
2019-01-21T22:52:53.351Z,9.63
2019-01-21T22:55:42.282Z,8.30
2019-01-21T22:58:31.032Z,10.07
2019-01-21T23:01:22.866Z,8.57
2019-01-21T23:04:12.279Z,11.13
2019-01-21T23:07:00.657Z,10.20
2019-01-21T23:09:48.958Z,7.03
2019-01-21T23:12:37.890Z,6.30
2019-01-21T23:15:26.482Z,8.27
2019-01-21T23:18:14.814Z,6.93
2019-01-21T23:21:02.761Z,8.67
2019-01-21T23:23:51.258Z,9.47
2019-01-21T23:26:39.584Z,5.80
2019-01-21T23:29:27.959Z,6.43
2019-01-21T23:32:16.431Z,7.70
2019-01-21T23:35:05.718Z,6.83
2019-01-21T23:37:54.238Z,8.27
2019-01-21T23:40:43.168Z,5.83
2019-01-21T23:43:31.832Z,6.73
2019-01-21T23:46:20.582Z,6.03
2019-01-21T23:49:08.930Z,5.73
2019-01-21T23:51:56.988Z,7.83
2019-01-21T23:54:45.518Z,6.87
2019-01-21T23:57:34.444Z,6.13
